createdAt,value
2023-06-10T00:00:48.331Z,100850.25
2023-06-10T00:03:15.837Z,100843.59
2023-06-10T00:05:42.453Z,100839.88
2023-06-10T00:08:09.072Z,100846.75
2023-06-10T00:10:36.764Z,100843.22
2023-06-10T00:13:05.002Z,100839.19
2023-06-10T00:15:31.918Z,100838.78
2023-06-10T00:17:58.553Z,100842.63
2023-06-10T00:20:26.189Z,100845.19
2023-06-10T00:22:53.314Z,100843.63
2023-06-10T00:25:20.106Z,100842.44
2023-06-10T00:27:46.684Z,100841.16
2023-06-10T00:30:13.461Z,100838.34
2023-06-10T00:32:40.043Z,100838.44
2023-06-10T00:35:07.927Z,100847.97
2023-06-10T00:37:38.374Z,100849.41
2023-06-10T00:40:05.849Z,100855.69
2023-06-10T00:42:32.568Z,100839.69
2023-06-10T00:44:58.971Z,100843.94
2023-06-10T00:47:26.893Z,100849.47
2023-06-10T00:49:54.221Z,100842.88
2023-06-10T00:52:21.881Z,100848.56
2023-06-10T00:54:48.494Z,100844.44
2023-06-10T00:57:14.899Z,100852.56
2023-06-10T00:59:46.397Z,100853.16
2023-06-10T01:02:13.063Z,100850.56
2023-06-10T01:04:39.438Z,100857.00
2023-06-10T01:07:27.433Z,100851.59
2023-06-10T01:10:02.309Z,100849.69
2023-06-10T01:12:50.839Z,100855.19
2023-06-10T01:15:24.033Z,100853.72
2023-06-10T01:17:58.707Z,100855.19
2023-06-10T01:20:30.778Z,100857.47
2023-06-10T01:23:05.329Z,100856.50
2023-06-10T01:25:34.331Z,100852.31
2023-06-10T01:28:08.187Z,100852.44
2023-06-10T01:30:52.237Z,100858.31
2023-06-10T01:33:26.620Z,100850.69
2023-06-10T01:35:54.195Z,100860.59
2023-06-10T01:38:21.835Z,100861.41
2023-06-10T01:40:50.525Z,100854.50
2023-06-10T01:43:17.028Z,100850.16
2023-06-10T01:45:43.507Z,100848.56
2023-06-10T01:48:10.134Z,100852.59
2023-06-10T01:50:36.722Z,100851.81
2023-06-10T01:53:03.347Z,100855.97
2023-06-10T01:55:29.737Z,100858.03
2023-06-10T01:57:56.115Z,100863.13
2023-06-10T02:00:22.520Z,100867.19
2023-06-10T02:02:49.036Z,100859.94
2023-06-10T02:05:15.458Z,100858.78
2023-06-10T02:07:41.933Z,100860.63
2023-06-10T02:10:08.956Z,100854.69
2023-06-10T02:12:35.397Z,100860.94
2023-06-10T02:15:01.896Z,100877.38
2023-06-10T02:17:28.640Z,100868.47
2023-06-10T02:19:55.142Z,100872.00
2023-06-10T02:22:23.022Z,100880.28
2023-06-10T02:24:49.757Z,100874.50
2023-06-10T02:27:16.785Z,100880.00
2023-06-10T02:29:44.288Z,100884.25
2023-06-10T02:32:11.692Z,100884.25
2023-06-10T02:34:38.234Z,100881.16
2023-06-10T02:37:05.471Z,100886.56
2023-06-10T02:39:32.101Z,100880.22
2023-06-10T02:41:58.618Z,100882.78
2023-06-10T02:44:25.076Z,100886.97
2023-06-10T02:46:51.788Z,100877.97
2023-06-10T02:49:18.130Z,100872.16
2023-06-10T02:51:44.575Z,100880.16
2023-06-10T02:54:11.025Z,100883.13
2023-06-10T02:56:38.054Z,100881.28
2023-06-10T02:59:04.618Z,100886.44
2023-06-10T03:01:32.801Z,100880.22
2023-06-10T03:03:59.893Z,100889.50
2023-06-10T03:06:27.435Z,100892.75
2023-06-10T03:08:53.924Z,100889.25
2023-06-10T03:11:20.859Z,100886.78
2023-06-10T03:13:47.848Z,100891.56
2023-06-10T03:16:14.329Z,100893.84
2023-06-10T03:18:41.060Z,100892.66
2023-06-10T03:21:07.813Z,100890.09
2023-06-10T03:23:34.682Z,100890.69
2023-06-10T03:26:01.639Z,100894.16
2023-06-10T03:28:28.305Z,100903.25
2023-06-10T03:30:54.784Z,100900.31
2023-06-10T03:33:21.204Z,100905.44
2023-06-10T03:35:47.826Z,100901.94
2023-06-10T03:38:14.292Z,100899.34
2023-06-10T03:40:41.161Z,100910.06
2023-06-10T03:43:07.626Z,100896.59
2023-06-10T03:45:34.234Z,100905.03
2023-06-10T03:48:02.782Z,100900.63
2023-06-10T03:50:29.567Z,100900.25
2023-06-10T03:52:56.035Z,100907.88
2023-06-10T03:55:24.372Z,100908.25
2023-06-10T03:57:51.224Z,100908.22
2023-06-10T04:00:18.686Z,100904.13
2023-06-10T04:02:50.453Z,100904.50
2023-06-10T04:05:18.716Z,100907.66
2023-06-10T04:07:45.358Z,100913.06
2023-06-10T04:10:12.560Z,100908.66
2023-06-10T04:12:39.692Z,100923.91
2023-06-10T04:15:07.299Z,100920.13
2023-06-10T04:17:33.847Z,100916.06
2023-06-10T04:20:01.636Z,100925.16
2023-06-10T04:22:27.962Z,100921.56
2023-06-10T04:24:54.315Z,100915.13
2023-06-10T04:27:20.700Z,100926.44
2023-06-10T04:29:47.028Z,100931.84
2023-06-10T04:32:13.428Z,100931.56
2023-06-10T04:34:40.396Z,100934.63
2023-06-10T04:37:07.668Z,100943.41
2023-06-10T04:39:35.190Z,100938.91
2023-06-10T04:42:03.562Z,100933.13
2023-06-10T04:44:31.907Z,100931.56
2023-06-10T04:46:58.557Z,100934.00
2023-06-10T04:49:25.222Z,100930.53
2023-06-10T04:51:52.639Z,100934.13
2023-06-10T04:54:19.172Z,100932.47
2023-06-10T04:56:46.281Z,100928.09
2023-06-10T04:59:12.772Z,100929.69
2023-06-10T05:01:39.258Z,100928.28
2023-06-10T05:04:06.064Z,100931.94
2023-06-10T05:06:32.588Z,100936.66
2023-06-10T05:08:59.119Z,100935.44
2023-06-10T05:11:25.520Z,100934.63
2023-06-10T05:13:52.630Z,100940.53
2023-06-10T05:16:19.154Z,100938.41
2023-06-10T05:18:45.811Z,100941.56
2023-06-10T05:21:12.837Z,100941.41
2023-06-10T05:23:39.495Z,100942.38
2023-06-10T05:26:05.947Z,100950.56
2023-06-10T05:28:32.389Z,100941.78
2023-06-10T05:30:58.969Z,100940.53
2023-06-10T05:33:25.401Z,100954.91
2023-06-10T05:35:51.816Z,100938.22
2023-06-10T05:38:18.272Z,100941.72
2023-06-10T05:40:47.051Z,100948.84
2023-06-10T05:43:13.494Z,100944.06
2023-06-10T05:45:41.561Z,100944.31
2023-06-10T05:48:08.233Z,100945.06
2023-06-10T05:50:39.433Z,100939.09
2023-06-10T05:53:08.158Z,100940.56
2023-06-10T05:55:34.813Z,100946.69
2023-06-10T05:58:01.869Z,100950.06
2023-06-10T06:00:28.448Z,100944.16
2023-06-10T06:02:55.519Z,100943.03
2023-06-10T06:05:22.327Z,100945.56
2023-06-10T06:07:48.826Z,100946.59
2023-06-10T06:10:15.320Z,100952.13
2023-06-10T06:12:41.845Z,100941.38
2023-06-10T06:15:09.848Z,100947.22
2023-06-10T06:17:36.664Z,100952.91
2023-06-10T06:20:04.634Z,100946.59
2023-06-10T06:22:31.110Z,100945.94
2023-06-10T06:24:57.680Z,100955.88
2023-06-10T06:27:24.118Z,100951.81
2023-06-10T06:29:51.911Z,100957.03
2023-06-10T06:32:18.940Z,100956.19
2023-06-10T06:34:45.392Z,100944.38
2023-06-10T06:37:11.885Z,100941.97
2023-06-10T06:39:38.244Z,100946.81
2023-06-10T06:42:05.305Z,100952.53
2023-06-10T06:44:31.647Z,100958.56
2023-06-10T06:46:58.033Z,100949.03
2023-06-10T06:49:24.523Z,100961.34
2023-06-10T06:51:51.066Z,100961.03
2023-06-10T06:54:17.501Z,100958.50
2023-06-10T06:56:43.960Z,100954.34
2023-06-10T06:59:11.011Z,100963.44
2023-06-10T07:01:37.406Z,100956.75
2023-06-10T07:04:04.003Z,100954.75
2023-06-10T07:06:30.512Z,100948.56
2023-06-10T07:08:57.053Z,100952.97
2023-06-10T07:11:23.381Z,100954.16
2023-06-10T07:13:50.101Z,100958.13
2023-06-10T07:16:16.580Z,100961.53
2023-06-10T07:18:43.133Z,100959.94
2023-06-10T07:21:09.637Z,100953.22
2023-06-10T07:23:36.055Z,100947.00
2023-06-10T07:26:02.402Z,100964.81
2023-06-10T07:28:28.946Z,100957.56
2023-06-10T07:30:55.604Z,100959.63
2023-06-10T07:33:22.025Z,100949.72
2023-06-10T07:35:48.470Z,100954.50
2023-06-10T07:38:14.842Z,100948.38
2023-06-10T07:40:41.334Z,100950.75
2023-06-10T07:43:07.781Z,100942.53
2023-06-10T07:45:34.158Z,100946.81
2023-06-10T07:48:00.671Z,100948.00
2023-06-10T07:50:27.074Z,100948.63
2023-06-10T07:52:53.448Z,100950.34
2023-06-10T07:55:19.952Z,100940.50
2023-06-10T07:57:46.292Z,100948.63
2023-06-10T08:00:13.086Z,100951.63
2023-06-10T08:02:40.417Z,100955.97
2023-06-10T08:05:07.402Z,100942.91
2023-06-10T08:07:34.037Z,100951.50
2023-06-10T08:10:00.642Z,100956.50
2023-06-10T08:12:27.048Z,100955.09
2023-06-10T08:14:54.724Z,100944.84
2023-06-10T08:17:21.181Z,100953.53
2023-06-10T08:19:47.881Z,100951.34
2023-06-10T08:22:14.291Z,100950.88
2023-06-10T08:24:40.763Z,100951.09
2023-06-10T08:27:07.248Z,100952.25
2023-06-10T08:29:34.310Z,100953.16
2023-06-10T08:32:01.398Z,100954.94
2023-06-10T08:34:27.805Z,100947.69
2023-06-10T08:36:56.232Z,100959.31
2023-06-10T08:39:23.479Z,100949.53
2023-06-10T08:42:10.402Z,100957.94
2023-06-10T08:44:39.665Z,100950.72
2023-06-10T08:47:15.166Z,100948.34
2023-06-10T08:49:46.054Z,100943.47
2023-06-10T08:52:19.386Z,100944.00
2023-06-10T08:55:16.528Z,100941.66
2023-06-10T08:57:43.660Z,100941.00
2023-06-10T09:00:11.620Z,100945.69
2023-06-10T09:02:39.429Z,100944.03
2023-06-10T09:05:06.561Z,100950.09
2023-06-10T09:07:33.049Z,100945.75
2023-06-10T09:10:01.284Z,100947.19
2023-06-10T09:12:27.816Z,100935.47
2023-06-10T09:14:54.149Z,100935.66
2023-06-10T09:17:20.639Z,100939.97
2023-06-10T09:19:47.282Z,100940.31
2023-06-10T09:22:13.687Z,100933.88
2023-06-10T09:24:41.222Z,100932.50
2023-06-10T09:27:08.996Z,100933.00
2023-06-10T09:29:49.162Z,100917.41
2023-06-10T09:32:19.178Z,100921.97
2023-06-10T09:34:46.819Z,100927.28
2023-06-10T09:37:14.698Z,100926.25
2023-06-10T09:39:41.632Z,100921.25
2023-06-10T09:42:19.717Z,100924.34
2023-06-10T09:44:52.365Z,100917.91
2023-06-10T09:47:23.607Z,100926.97
2023-06-10T09:49:51.573Z,100919.81
2023-06-10T09:52:25.630Z,100924.75
2023-06-10T09:54:53.353Z,100911.31
2023-06-10T09:57:21.904Z,100920.63
2023-06-10T09:59:48.949Z,100921.19
2023-06-10T10:02:18.926Z,100916.59
2023-06-10T10:04:45.852Z,100907.63
2023-06-10T10:07:13.079Z,100911.88
2023-06-10T10:09:41.232Z,100916.44
2023-06-10T10:12:12.073Z,100907.09
2023-06-10T10:14:40.139Z,100916.50
2023-06-10T10:17:14.931Z,100909.53
2023-06-10T10:19:48.393Z,100909.66
2023-06-10T10:22:30.807Z,100914.34
2023-06-10T10:25:00.209Z,100900.75
2023-06-10T10:27:36.632Z,100901.19
2023-06-10T10:30:09.548Z,100904.63
2023-06-10T10:32:57.225Z,100907.19
2023-06-10T10:35:26.054Z,100905.63
2023-06-10T10:37:54.540Z,100893.06
2023-06-10T10:40:23.715Z,100894.00
2023-06-10T10:42:51.817Z,100891.31
2023-06-10T10:45:18.907Z,100888.56
2023-06-10T10:47:47.132Z,100898.78
2023-06-10T10:50:16.492Z,100890.97
2023-06-10T10:52:59.824Z,100892.47
2023-06-10T10:55:28.071Z,100884.06
2023-06-10T10:58:05.488Z,100890.63
2023-06-10T11:00:34.094Z,100885.28
2023-06-10T11:03:10.912Z,100881.28
2023-06-10T11:05:45.177Z,100875.75
2023-06-10T11:08:12.309Z,100886.94
2023-06-10T11:10:41.650Z,100886.25
2023-06-10T11:13:14.489Z,100879.53
2023-06-10T11:15:48.058Z,100880.88
2023-06-10T11:18:21.887Z,100877.78
2023-06-10T11:20:51.226Z,100872.22
2023-06-10T11:23:29.763Z,100881.63
2023-06-10T11:26:17.935Z,100875.75
2023-06-10T11:28:47.404Z,100866.00
2023-06-10T11:31:27.804Z,100879.44
2023-06-10T11:33:58.513Z,100871.63
2023-06-10T11:36:26.790Z,100878.00
2023-06-10T11:38:57.364Z,100876.63
2023-06-10T11:41:26.789Z,100865.63
2023-06-10T11:43:54.459Z,100870.69
2023-06-10T11:46:21.083Z,100869.03
2023-06-10T11:48:54.850Z,100875.16
2023-06-10T11:51:21.782Z,100867.22
2023-06-10T11:53:49.802Z,100864.75
2023-06-10T11:56:22.952Z,100859.00
2023-06-10T11:59:02.041Z,100856.88
2023-06-10T12:01:29.682Z,100855.16
2023-06-10T12:04:06.683Z,100854.38
2023-06-10T12:06:43.226Z,100857.41
2023-06-10T12:09:27.005Z,100854.13
2023-06-10T12:12:03.454Z,100842.16
2023-06-10T12:14:56.405Z,100853.69
2023-06-10T12:17:36.019Z,100837.44
2023-06-10T12:20:04.621Z,100835.03
2023-06-10T12:22:46.696Z,100836.75
2023-06-10T12:25:14.017Z,100844.00
2023-06-10T12:27:51.069Z,100831.66
2023-06-10T12:30:20.906Z,100839.03
2023-06-10T12:32:48.869Z,100832.38
2023-06-10T12:35:19.071Z,100838.50
2023-06-10T12:38:03.035Z,100834.34
2023-06-10T12:40:32.315Z,100833.13
2023-06-10T12:42:59.411Z,100828.47
2023-06-10T12:45:30.918Z,100832.13
2023-06-10T12:48:12.747Z,100830.50
2023-06-10T12:50:43.502Z,100837.69
2023-06-10T12:53:12.112Z,100826.16
2023-06-10T12:55:39.549Z,100827.97
2023-06-10T12:58:05.949Z,100829.50
2023-06-10T13:00:32.469Z,100837.19
2023-06-10T13:03:01.992Z,100818.81
2023-06-10T13:05:29.445Z,100826.66
2023-06-10T13:07:55.942Z,100829.63
2023-06-10T13:10:25.276Z,100827.09
2023-06-10T13:12:53.335Z,100825.56
2023-06-10T13:15:19.736Z,100823.66
2023-06-10T13:17:52.440Z,100823.44
2023-06-10T13:20:19.830Z,100818.16
2023-06-10T13:22:46.454Z,100825.88
2023-06-10T13:25:13.315Z,100816.81
2023-06-10T13:27:40.375Z,100814.44
2023-06-10T13:30:08.387Z,100810.22
2023-06-10T13:32:34.815Z,100813.94
2023-06-10T13:35:04.713Z,100792.84
2023-06-10T13:37:34.702Z,100802.09
2023-06-10T13:40:01.997Z,100805.34
2023-06-10T13:42:30.058Z,100795.66
2023-06-10T13:44:57.660Z,100801.66
2023-06-10T13:47:24.100Z,100802.47
2023-06-10T13:49:50.536Z,100797.41
2023-06-10T13:52:16.999Z,100790.59
2023-06-10T13:54:43.334Z,100794.22
2023-06-10T13:57:11.398Z,100790.28
2023-06-10T13:59:38.309Z,100792.78
2023-06-10T14:02:05.006Z,100798.03
2023-06-10T14:04:31.500Z,100790.75
2023-06-10T14:06:58.623Z,100797.28
2023-06-10T14:09:25.157Z,100798.88
2023-06-10T14:11:51.801Z,100785.28
2023-06-10T14:14:18.209Z,100792.44
2023-06-10T14:16:44.660Z,100796.84
2023-06-10T14:19:11.110Z,100802.78
2023-06-10T14:21:37.692Z,100804.53
2023-06-10T14:24:04.232Z,100796.00
2023-06-10T14:26:30.877Z,100798.72
2023-06-10T14:28:57.207Z,100802.56
2023-06-10T14:31:23.567Z,100798.03
2023-06-10T14:33:50.139Z,100799.63
2023-06-10T14:36:16.927Z,100797.94
2023-06-10T14:38:43.274Z,100797.03
2023-06-10T14:41:09.679Z,100802.22
2023-06-10T14:43:36.224Z,100789.66
2023-06-10T14:46:02.648Z,100795.19
2023-06-10T14:48:29.143Z,100781.97
2023-06-10T14:50:56.181Z,100785.34
2023-06-10T14:53:22.752Z,100780.25
2023-06-10T14:55:49.222Z,100779.09
2023-06-10T14:58:15.630Z,100769.53
2023-06-10T15:00:42.202Z,100766.38
2023-06-10T15:03:08.793Z,100757.63
2023-06-10T15:05:35.757Z,100759.22
2023-06-10T15:08:02.312Z,100752.97
2023-06-10T15:10:28.775Z,100762.25
2023-06-10T15:12:57.045Z,100759.41
2023-06-10T15:15:24.665Z,100760.50
2023-06-10T15:17:51.042Z,100753.63
2023-06-10T15:20:17.646Z,100761.59
2023-06-10T15:22:44.043Z,100750.50
2023-06-10T15:25:25.828Z,100755.00
2023-06-10T15:27:56.780Z,100745.38
2023-06-10T15:30:23.381Z,100748.63
2023-06-10T15:32:49.767Z,100748.34
2023-06-10T15:35:16.343Z,100753.91
2023-06-10T15:37:42.739Z,100752.25
2023-06-10T15:40:09.494Z,100749.03
2023-06-10T15:42:35.994Z,100739.41
2023-06-10T15:45:02.369Z,100738.63
2023-06-10T15:47:28.921Z,100740.97
2023-06-10T15:49:55.314Z,100738.19
2023-06-10T15:52:21.734Z,100732.22
2023-06-10T15:54:48.140Z,100744.59
2023-06-10T15:57:14.868Z,100730.53
2023-06-10T15:59:41.221Z,100734.56
2023-06-10T16:02:07.630Z,100731.78
2023-06-10T16:04:34.115Z,100727.03
2023-06-10T16:07:00.440Z,100717.03
2023-06-10T16:09:26.774Z,100724.19
2023-06-10T16:11:53.154Z,100728.63
2023-06-10T16:14:19.682Z,100725.31
2023-06-10T16:16:46.096Z,100717.63
2023-06-10T16:19:12.846Z,100713.69
2023-06-10T16:21:41.097Z,100713.78
2023-06-10T16:24:11.577Z,100718.56
2023-06-10T16:26:38.161Z,100717.75
2023-06-10T16:29:04.591Z,100720.59
2023-06-10T16:31:31.031Z,100726.16
2023-06-10T16:33:57.418Z,100726.94
2023-06-10T16:36:23.776Z,100717.00
2023-06-10T16:38:50.265Z,100722.25
2023-06-10T16:41:16.799Z,100719.47
2023-06-10T16:43:43.258Z,100726.66
2023-06-10T16:46:09.599Z,100720.25
2023-06-10T16:48:36.260Z,100726.25
2023-06-10T16:51:02.602Z,100717.81
2023-06-10T16:53:29.059Z,100724.22
2023-06-10T16:55:55.827Z,100724.56
2023-06-10T16:58:22.366Z,100725.66
2023-06-10T17:00:50.350Z,100726.34
2023-06-10T17:03:16.902Z,100721.53
2023-06-10T17:05:43.453Z,100729.22
2023-06-10T17:08:10.178Z,100735.94
2023-06-10T17:10:37.088Z,100730.31
2023-06-10T17:13:03.565Z,100743.09
2023-06-10T17:15:29.957Z,100738.34
2023-06-10T17:17:56.347Z,100738.78
2023-06-10T17:20:23.440Z,100731.16
2023-06-10T17:22:49.784Z,100738.31
2023-06-10T17:25:16.247Z,100746.25
2023-06-10T17:27:42.663Z,100739.56
2023-06-10T17:30:09.491Z,100726.88
2023-06-10T17:32:38.144Z,100732.44
2023-06-10T17:35:05.135Z,100726.22
2023-06-10T17:37:31.502Z,100732.69
2023-06-10T17:39:57.942Z,100735.06
2023-06-10T17:42:24.288Z,100729.44
2023-06-10T17:44:50.716Z,100740.63
2023-06-10T17:47:17.176Z,100743.69
2023-06-10T17:49:43.488Z,100748.84
2023-06-10T17:52:09.862Z,100747.75
2023-06-10T17:54:36.369Z,100744.56
2023-06-10T17:57:02.761Z,100754.28
2023-06-10T17:59:29.089Z,100756.72
2023-06-10T18:01:55.469Z,100760.00
2023-06-10T18:04:21.893Z,100759.19
2023-06-10T18:06:48.377Z,100754.41
2023-06-10T18:09:15.500Z,100758.41
2023-06-10T18:11:42.020Z,100760.00
2023-06-10T18:14:08.530Z,100765.63
2023-06-10T18:16:34.896Z,100762.75
2023-06-10T18:19:01.300Z,100765.97
2023-06-10T18:21:27.728Z,100773.66
2023-06-10T18:23:54.282Z,100764.81
2023-06-10T18:26:20.826Z,100774.84
2023-06-10T18:28:47.192Z,100775.25
2023-06-10T18:31:13.552Z,100773.63
2023-06-10T18:33:39.955Z,100776.09
2023-06-10T18:36:06.339Z,100775.69
2023-06-10T18:38:32.653Z,100775.31
2023-06-10T18:40:59.276Z,100771.69
2023-06-10T18:43:25.746Z,100774.03
2023-06-10T18:45:52.368Z,100780.91
2023-06-10T18:48:19.043Z,100776.91
2023-06-10T18:50:45.499Z,100785.75
2023-06-10T18:53:11.974Z,100790.19
2023-06-10T18:55:38.478Z,100792.19
2023-06-10T18:58:05.376Z,100788.94
2023-06-10T19:00:32.102Z,100786.50
2023-06-10T19:02:58.699Z,100794.53
2023-06-10T19:05:25.353Z,100792.13
2023-06-10T19:07:51.706Z,100799.34
2023-06-10T19:10:18.874Z,100796.09
2023-06-10T19:12:45.685Z,100791.28
2023-06-10T19:15:12.331Z,100799.31
2023-06-10T19:17:38.794Z,100809.31
2023-06-10T19:20:06.228Z,100806.03
2023-06-10T19:22:32.606Z,100813.22
2023-06-10T19:25:04.517Z,100814.81
2023-06-10T19:27:31.055Z,100820.84
2023-06-10T19:29:58.419Z,100824.47
2023-06-10T19:32:25.709Z,100826.03
2023-06-10T19:34:52.157Z,100824.44
2023-06-10T19:37:18.698Z,100830.44
2023-06-10T19:39:45.121Z,100838.00
2023-06-10T19:42:14.254Z,100838.34
2023-06-10T19:44:41.909Z,100842.25
2023-06-10T19:47:08.444Z,100847.84
2023-06-10T19:49:34.933Z,100846.09
2023-06-10T19:52:07.182Z,100854.53
2023-06-10T19:54:35.183Z,100851.66
2023-06-10T19:57:02.256Z,100850.31
2023-06-10T19:59:29.981Z,100856.09
2023-06-10T20:01:56.466Z,100861.50
2023-06-10T20:04:23.051Z,100864.44
2023-06-10T20:06:49.599Z,100869.91
2023-06-10T20:09:16.168Z,100870.63
2023-06-10T20:11:42.591Z,100862.91
2023-06-10T20:14:09.038Z,100867.53
2023-06-10T20:16:35.730Z,100870.13
2023-06-10T20:19:03.876Z,100872.69
2023-06-10T20:21:30.357Z,100879.25
2023-06-10T20:23:56.820Z,100880.22
2023-06-10T20:26:24.217Z,100887.19
2023-06-10T20:28:50.666Z,100889.59
2023-06-10T20:31:17.027Z,100897.25
2023-06-10T20:33:43.374Z,100893.28
2023-06-10T20:36:09.930Z,100900.41
2023-06-10T20:38:36.413Z,100897.28
2023-06-10T20:41:02.902Z,100897.19
2023-06-10T20:43:29.597Z,100910.81
2023-06-10T20:45:57.270Z,100898.56
2023-06-10T20:48:23.876Z,100901.34
2023-06-10T20:50:50.447Z,100907.03
2023-06-10T20:53:16.941Z,100909.06
2023-06-10T20:55:43.506Z,100910.09
2023-06-10T20:58:10.641Z,100919.47
2023-06-10T21:00:37.266Z,100923.63
2023-06-10T21:03:03.983Z,100918.13
2023-06-10T21:05:30.592Z,100916.75
2023-06-10T21:07:57.087Z,100915.31
2023-06-10T21:10:23.662Z,100918.41
2023-06-10T21:12:50.385Z,100920.88
2023-06-10T21:15:17.801Z,100923.72
2023-06-10T21:17:44.737Z,100927.00
2023-06-10T21:20:13.339Z,100924.44
2023-06-10T21:22:39.844Z,100930.25
2023-06-10T21:25:06.991Z,100934.34
2023-06-10T21:27:33.528Z,100931.25
2023-06-10T21:29:59.974Z,100941.59
2023-06-10T21:32:27.020Z,100941.03
2023-06-10T21:34:53.440Z,100947.66
2023-06-10T21:37:19.834Z,100942.06
2023-06-10T21:39:46.181Z,100941.91
2023-06-10T21:42:12.865Z,100946.41
2023-06-10T21:44:39.662Z,100938.53
2023-06-10T21:47:06.541Z,100943.06
2023-06-10T21:49:33.139Z,100938.53
2023-06-10T21:51:59.706Z,100936.00
2023-06-10T21:54:26.274Z,100948.88
2023-06-10T21:56:52.865Z,100948.41
2023-06-10T21:59:20.879Z,100941.56
2023-06-10T22:01:47.416Z,100943.66
2023-06-10T22:04:13.937Z,100939.72
2023-06-10T22:06:40.673Z,100942.97
2023-06-10T22:09:07.171Z,100942.28
2023-06-10T22:11:33.579Z,100941.31
2023-06-10T22:14:00.239Z,100944.00
2023-06-10T22:16:27.007Z,100943.19
2023-06-10T22:18:53.536Z,100945.06
2023-06-10T22:21:19.964Z,100943.31
2023-06-10T22:23:46.572Z,100945.06
2023-06-10T22:26:12.983Z,100947.16
2023-06-10T22:28:39.418Z,100936.00
2023-06-10T22:31:05.957Z,100949.00
2023-06-10T22:33:32.404Z,100942.16
2023-06-10T22:35:58.938Z,100950.06
2023-06-10T22:38:25.471Z,100948.41
2023-06-10T22:40:51.885Z,100946.09
2023-06-10T22:43:18.436Z,100957.16
2023-06-10T22:45:45.098Z,100962.47
2023-06-10T22:48:11.681Z,100955.06
2023-06-10T22:50:38.215Z,100961.63
2023-06-10T22:53:04.664Z,100961.78
2023-06-10T22:55:31.262Z,100955.22
2023-06-10T22:57:57.776Z,100956.09
2023-06-10T23:00:24.159Z,100961.63
2023-06-10T23:02:50.684Z,100966.28
2023-06-10T23:05:17.200Z,100960.53
2023-06-10T23:07:43.541Z,100957.78
2023-06-10T23:10:10.491Z,100958.50
2023-06-10T23:12:37.314Z,100958.22
2023-06-10T23:15:04.586Z,100957.09
2023-06-10T23:17:32.092Z,100963.03
2023-06-10T23:19:59.696Z,100958.41
2023-06-10T23:22:26.381Z,100961.75
2023-06-10T23:24:52.925Z,100964.78
2023-06-10T23:27:21.654Z,100963.28
2023-06-10T23:29:58.427Z,100965.72
2023-06-10T23:32:26.973Z,100962.69
2023-06-10T23:34:53.697Z,100970.94
2023-06-10T23:37:20.847Z,100975.47
2023-06-10T23:39:49.485Z,100964.88
2023-06-10T23:42:17.303Z,100978.94
2023-06-10T23:44:43.711Z,100981.19
2023-06-10T23:47:10.368Z,100980.47
2023-06-10T23:49:36.799Z,100977.53
2023-06-10T23:52:03.472Z,100975.66
2023-06-10T23:54:29.947Z,100976.13
2023-06-10T23:56:59.236Z,100973.84
2023-06-10T23:59:26.453Z,100972.88
